createdAt,value
2019-02-11T00:00:05.890Z,985.86
2019-02-11T00:01:05.966Z,985.92
2019-02-11T00:02:06.206Z,985.96
2019-02-11T00:03:06.425Z,985.96
2019-02-11T00:04:06.649Z,985.99
2019-02-11T00:05:07.113Z,985.91
2019-02-11T00:06:07.064Z,985.91
2019-02-11T00:07:07.274Z,985.90
2019-02-11T00:08:07.560Z,985.91
2019-02-11T00:09:07.704Z,986.03
2019-02-11T00:10:07.946Z,985.90
2019-02-11T00:11:08.138Z,985.98
2019-02-11T00:12:08.353Z,986.02
2019-02-11T00:13:10.665Z,986.03
2019-02-11T00:14:08.780Z,986.07
2019-02-11T00:15:09.036Z,986.11
2019-02-11T00:16:09.285Z,986.07
2019-02-11T00:17:09.445Z,986.19
2019-02-11T00:18:09.664Z,986.08
2019-02-11T00:19:11.043Z,986.14
2019-02-11T00:20:10.155Z,986.17
2019-02-11T00:21:10.340Z,986.19
2019-02-11T00:22:10.557Z,986.25
2019-02-11T00:23:10.788Z,986.26
2019-02-11T00:24:10.986Z,986.26
2019-02-11T00:25:11.343Z,986.25
2019-02-11T00:26:11.415Z,986.23
2019-02-11T00:27:11.632Z,986.27
2019-02-11T00:28:11.864Z,986.40
2019-02-11T00:29:12.047Z,986.37
2019-02-11T00:30:12.304Z,986.38
2019-02-11T00:31:12.501Z,986.45
2019-02-11T00:32:12.697Z,986.53
2019-02-11T00:33:13.068Z,986.53
2019-02-11T00:34:13.136Z,986.57
2019-02-11T00:35:13.421Z,986.54
2019-02-11T00:36:13.578Z,986.53
2019-02-11T00:37:13.804Z,986.51
2019-02-11T00:38:14.040Z,986.54
2019-02-11T00:39:14.216Z,986.51
2019-02-11T00:40:14.456Z,986.60
2019-02-11T00:41:14.767Z,986.58
2019-02-11T00:42:14.862Z,986.60
2019-02-11T00:43:19.146Z,986.59
2019-02-11T00:44:15.298Z,986.74
2019-02-11T00:45:15.527Z,986.66
2019-02-11T00:46:15.731Z,986.66
2019-02-11T00:47:15.944Z,986.68
2019-02-11T00:48:16.176Z,986.71
2019-02-11T00:49:16.417Z,986.68
2019-02-11T00:50:16.596Z,986.61
2019-02-11T00:51:16.774Z,986.76
2019-02-11T00:52:17.003Z,986.77
2019-02-11T00:53:17.244Z,986.80
2019-02-11T00:54:17.449Z,986.79
2019-02-11T00:55:17.699Z,986.78
2019-02-11T00:56:17.850Z,986.75
2019-02-11T00:57:18.126Z,986.74
2019-02-11T00:58:18.386Z,986.75
2019-02-11T00:59:18.522Z,986.88
2019-02-11T01:00:18.770Z,986.81
2019-02-11T01:01:18.940Z,986.81
2019-02-11T01:02:19.171Z,986.89
2019-02-11T01:03:19.414Z,986.87
2019-02-11T01:04:19.613Z,986.94
2019-02-11T01:05:19.878Z,986.89
2019-02-11T01:06:20.176Z,986.91
2019-02-11T01:07:20.266Z,986.99
2019-02-11T01:08:20.493Z,987.21
2019-02-11T01:09:20.691Z,987.06
2019-02-11T01:10:20.915Z,987.16
2019-02-11T01:11:21.126Z,987.09
2019-02-11T01:12:21.325Z,987.13
2019-02-11T01:13:27.569Z,987.13
2019-02-11T01:14:22.886Z,987.05
2019-02-11T01:15:21.988Z,987.15
2019-02-11T01:16:22.215Z,987.17
2019-02-11T01:17:22.415Z,987.25
2019-02-11T01:18:22.661Z,987.23
2019-02-11T01:19:22.860Z,987.23
2019-02-11T01:20:23.084Z,987.23
2019-02-11T01:21:23.308Z,987.21
2019-02-11T01:22:23.562Z,987.36
2019-02-11T01:23:23.729Z,987.22
2019-02-11T01:24:23.954Z,987.20
2019-02-11T01:25:24.168Z,987.20
2019-02-11T01:26:24.390Z,987.35
2019-02-11T01:27:24.578Z,987.29
2019-02-11T01:28:24.817Z,987.19
2019-02-11T01:29:25.008Z,987.25
2019-02-11T01:30:25.440Z,987.37
2019-02-11T01:31:25.520Z,987.38
2019-02-11T01:32:25.695Z,987.36
2019-02-11T01:33:25.936Z,987.40
2019-02-11T01:34:26.120Z,987.40
2019-02-11T01:35:26.356Z,987.37
2019-02-11T01:36:26.584Z,987.45
2019-02-11T01:37:26.772Z,987.51
2019-02-11T01:38:27.040Z,987.42
2019-02-11T01:39:27.323Z,987.55
2019-02-11T01:40:27.437Z,987.57
2019-02-11T01:41:27.664Z,987.62
2019-02-11T01:42:28.086Z,987.59
2019-02-11T01:43:35.656Z,987.63
2019-02-11T01:44:29.274Z,987.75
2019-02-11T01:45:28.523Z,987.61
2019-02-11T01:46:28.745Z,987.77
2019-02-11T01:47:29.074Z,987.70
2019-02-11T01:48:29.179Z,987.88
2019-02-11T01:49:29.363Z,987.82
2019-02-11T01:50:29.624Z,987.82
2019-02-11T01:51:29.826Z,987.98
2019-02-11T01:52:30.019Z,987.89
2019-02-11T01:53:30.257Z,987.94
2019-02-11T01:54:30.455Z,987.89
2019-02-11T01:55:30.774Z,987.84
2019-02-11T01:56:30.887Z,987.90
2019-02-11T01:57:31.092Z,987.87
2019-02-11T01:58:31.324Z,987.84
2019-02-11T01:59:31.524Z,987.91
2019-02-11T02:00:31.731Z,987.89
2019-02-11T02:01:31.972Z,987.94
2019-02-11T02:02:32.183Z,988.03
2019-02-11T02:03:32.447Z,987.98
2019-02-11T02:04:32.588Z,988.03
2019-02-11T02:05:32.837Z,987.98
2019-02-11T02:06:33.062Z,988.04
2019-02-11T02:07:33.246Z,988.09
2019-02-11T02:08:33.486Z,988.06
2019-02-11T02:09:33.687Z,988.03
2019-02-11T02:10:33.901Z,988.09
2019-02-11T02:11:34.192Z,988.14
2019-02-11T02:12:34.359Z,988.15
2019-02-11T02:13:34.546Z,988.18
2019-02-11T02:14:34.761Z,988.22
2019-02-11T02:15:34.988Z,988.20
2019-02-11T02:16:35.195Z,988.20
2019-02-11T02:17:35.408Z,988.17
2019-02-11T02:18:35.640Z,988.27
2019-02-11T02:19:35.874Z,988.20
2019-02-11T02:20:36.263Z,988.30
2019-02-11T02:21:36.343Z,988.26
2019-02-11T02:22:36.556Z,988.30
2019-02-11T02:23:36.767Z,988.23
2019-02-11T02:24:37.029Z,988.32
2019-02-11T02:25:37.223Z,988.39
2019-02-11T02:26:37.457Z,988.43
2019-02-11T02:27:37.631Z,988.40
2019-02-11T02:28:37.980Z,988.41
2019-02-11T02:29:38.093Z,988.37
2019-02-11T02:30:38.296Z,988.51
2019-02-11T02:31:38.522Z,988.54
2019-02-11T02:32:38.709Z,988.55
2019-02-11T02:33:38.925Z,988.56
2019-02-11T02:34:39.187Z,988.61
2019-02-11T02:35:39.403Z,988.72
2019-02-11T02:36:39.639Z,988.67
2019-02-11T02:37:39.788Z,988.66
2019-02-11T02:38:40.002Z,988.65
2019-02-11T02:39:40.277Z,988.82
2019-02-11T02:40:40.439Z,988.88
2019-02-11T02:41:40.740Z,988.91
2019-02-11T02:42:40.863Z,988.97
2019-02-11T02:43:41.090Z,988.88
2019-02-11T02:44:41.414Z,988.86
2019-02-11T02:45:41.557Z,989.08
2019-02-11T02:46:41.766Z,988.96
2019-02-11T02:47:41.957Z,989.07
2019-02-11T02:48:42.181Z,989.05
2019-02-11T02:49:42.424Z,989.16
2019-02-11T02:50:42.610Z,989.16
2019-02-11T02:51:42.846Z,989.23
2019-02-11T02:52:43.056Z,989.18
2019-02-11T02:53:43.419Z,989.23
2019-02-11T02:54:43.516Z,989.24
2019-02-11T02:55:43.702Z,989.29
2019-02-11T02:56:43.935Z,989.27
2019-02-11T02:57:44.143Z,989.34
2019-02-11T02:58:44.348Z,989.38
2019-02-11T02:59:44.573Z,989.38
2019-02-11T03:00:44.797Z,989.41
2019-02-11T03:01:45.348Z,989.59
2019-02-11T03:02:45.197Z,989.47
2019-02-11T03:03:45.416Z,989.46
2019-02-11T03:04:45.632Z,989.53
2019-02-11T03:05:45.870Z,989.64
2019-02-11T03:06:46.079Z,989.67
2019-02-11T03:07:46.275Z,989.67
2019-02-11T03:08:46.491Z,989.68
2019-02-11T03:09:46.817Z,989.73
2019-02-11T03:10:46.919Z,989.71
2019-02-11T03:11:47.138Z,989.78
2019-02-11T03:12:47.336Z,989.72
2019-02-11T03:13:47.553Z,989.90
2019-02-11T03:14:47.782Z,989.88
2019-02-11T03:15:48.003Z,989.92
2019-02-11T03:16:48.198Z,989.87
2019-02-11T03:17:48.465Z,989.94
2019-02-11T03:18:48.623Z,989.93
2019-02-11T03:19:49.065Z,990.01
2019-02-11T03:20:49.041Z,990.08
2019-02-11T03:21:49.263Z,990.07
2019-02-11T03:22:49.475Z,990.12
2019-02-11T03:23:49.730Z,990.21
2019-02-11T03:24:49.942Z,990.25
2019-02-11T03:25:50.157Z,990.32
2019-02-11T03:26:50.482Z,990.52
2019-02-11T03:27:50.665Z,990.48
2019-02-11T03:28:50.920Z,990.43
2019-02-11T03:29:51.148Z,990.56
2019-02-11T03:30:51.365Z,990.55
2019-02-11T03:31:51.610Z,990.51
2019-02-11T03:32:51.786Z,990.65
2019-02-11T03:33:52.057Z,990.72
2019-02-11T03:34:52.390Z,990.71
2019-02-11T03:35:52.492Z,990.63
2019-02-11T03:36:52.692Z,990.69
2019-02-11T03:37:52.929Z,990.82
2019-02-11T03:38:53.192Z,990.81
2019-02-11T03:39:53.407Z,990.78
2019-02-11T03:40:53.612Z,990.86
2019-02-11T03:41:53.835Z,990.88
2019-02-11T03:42:54.142Z,990.96
2019-02-11T03:43:54.273Z,990.97
2019-02-11T03:44:54.507Z,991.02
2019-02-11T03:45:54.712Z,991.00
2019-02-11T03:46:54.942Z,991.07
2019-02-11T03:47:55.172Z,991.00
2019-02-11T03:48:55.367Z,991.14
2019-02-11T03:49:55.616Z,991.03
2019-02-11T03:50:55.892Z,991.14
2019-02-11T03:51:56.069Z,991.25
2019-02-11T03:52:56.286Z,991.29
2019-02-11T03:53:56.514Z,991.28
2019-02-11T03:54:56.713Z,991.29
2019-02-11T03:55:57.012Z,991.31
2019-02-11T03:56:57.186Z,991.31
2019-02-11T03:57:57.412Z,991.36
2019-02-11T03:58:57.647Z,991.40
2019-02-11T03:59:57.842Z,991.42
2019-02-11T04:00:58.025Z,991.55
2019-02-11T04:01:58.275Z,991.52
2019-02-11T04:02:58.444Z,991.63
2019-02-11T04:03:58.660Z,991.64
2019-02-11T04:04:58.882Z,991.68
2019-02-11T04:05:59.099Z,991.64
2019-02-11T04:06:59.553Z,991.77
2019-02-11T04:07:59.733Z,991.84
2019-02-11T04:08:59.809Z,991.76
2019-02-11T04:10:00.038Z,991.84
2019-02-11T04:11:00.258Z,991.86
2019-02-11T04:12:00.487Z,991.90
2019-02-11T04:13:00.715Z,991.89
2019-02-11T04:14:00.918Z,991.87
2019-02-11T04:15:01.159Z,991.78
2019-02-11T04:16:01.438Z,992.07
2019-02-11T04:17:01.588Z,991.96
2019-02-11T04:18:01.825Z,992.14
2019-02-11T04:19:02.025Z,992.11
2019-02-11T04:20:02.259Z,992.19
2019-02-11T04:21:02.450Z,992.14
2019-02-11T04:22:02.702Z,992.20
2019-02-11T04:23:02.932Z,992.16
2019-02-11T04:24:03.190Z,992.14
2019-02-11T04:25:03.350Z,992.41
2019-02-11T04:26:03.551Z,992.27
2019-02-11T04:27:03.784Z,992.29
2019-02-11T04:28:04.027Z,992.27
2019-02-11T04:29:04.234Z,992.27
2019-02-11T04:30:04.474Z,992.39
2019-02-11T04:31:04.684Z,992.53
2019-02-11T04:32:04.930Z,992.54
2019-02-11T04:33:05.117Z,992.47
2019-02-11T04:34:05.357Z,992.36
2019-02-11T04:35:05.573Z,992.50
2019-02-11T04:36:05.798Z,992.52
2019-02-11T04:37:06.046Z,992.52
2019-02-11T04:38:06.269Z,992.53
2019-02-11T04:39:06.453Z,992.66
2019-02-11T04:40:06.708Z,992.67
2019-02-11T04:41:07.004Z,992.83
2019-02-11T04:42:07.158Z,992.70
2019-02-11T04:43:07.381Z,992.71
2019-02-11T04:44:07.599Z,992.78
2019-02-11T04:45:07.847Z,992.76
2019-02-11T04:46:08.068Z,992.74
2019-02-11T04:47:08.287Z,992.79
2019-02-11T04:48:08.522Z,992.77
2019-02-11T04:49:08.793Z,992.74
2019-02-11T04:50:08.954Z,992.87
2019-02-11T04:51:09.179Z,992.86
2019-02-11T04:52:09.405Z,992.88
2019-02-11T04:53:09.652Z,993.02
2019-02-11T04:54:09.824Z,993.11
2019-02-11T04:55:10.062Z,992.96
2019-02-11T04:56:10.301Z,993.04
2019-02-11T04:57:10.577Z,993.06
2019-02-11T04:58:10.734Z,993.11
2019-02-11T04:59:10.935Z,993.10
2019-02-11T05:00:11.158Z,993.13
2019-02-11T05:01:11.414Z,993.14
2019-02-11T05:02:11.859Z,993.16
2019-02-11T05:03:11.860Z,993.20
2019-02-11T05:04:12.071Z,993.17
2019-02-11T05:05:12.357Z,993.42
2019-02-11T05:06:12.490Z,993.29
2019-02-11T05:07:12.743Z,993.37
2019-02-11T05:08:12.981Z,993.33
2019-02-11T05:09:13.165Z,993.25
2019-02-11T05:10:13.380Z,993.33
2019-02-11T05:11:13.637Z,993.42
2019-02-11T05:12:13.820Z,993.42
2019-02-11T05:13:14.134Z,993.52
2019-02-11T05:14:14.320Z,993.53
2019-02-11T05:15:14.511Z,993.50
2019-02-11T05:16:14.747Z,993.60
2019-02-11T05:17:14.952Z,993.45
2019-02-11T05:18:16.860Z,993.49
2019-02-11T05:19:15.467Z,993.57
2019-02-11T05:20:15.636Z,993.55
2019-02-11T05:21:15.889Z,993.73
2019-02-11T05:22:16.203Z,993.72
2019-02-11T05:23:16.316Z,993.61
2019-02-11T05:24:16.519Z,993.68
2019-02-11T05:25:16.744Z,993.69
2019-02-11T05:26:16.980Z,993.70
2019-02-11T05:27:17.200Z,993.69
2019-02-11T05:28:17.405Z,993.76
2019-02-11T05:29:17.630Z,993.89
2019-02-11T05:30:17.970Z,993.93
2019-02-11T05:31:18.096Z,993.91
2019-02-11T05:32:18.314Z,993.91
2019-02-11T05:33:18.568Z,993.96
2019-02-11T05:34:18.749Z,993.92
2019-02-11T05:35:18.970Z,994.00
2019-02-11T05:36:19.208Z,994.20
2019-02-11T05:37:19.441Z,994.11
2019-02-11T05:38:19.721Z,994.14
2019-02-11T05:39:19.836Z,994.01
2019-02-11T05:40:20.067Z,994.21
2019-02-11T05:41:20.303Z,994.09
2019-02-11T05:42:20.509Z,994.05
2019-02-11T05:43:20.748Z,994.13
2019-02-11T05:44:20.969Z,994.11
2019-02-11T05:45:21.171Z,994.23
2019-02-11T05:46:21.482Z,994.24
2019-02-11T05:47:21.635Z,994.23
2019-02-11T05:48:21.862Z,994.36
2019-02-11T05:49:22.106Z,994.35
2019-02-11T05:50:22.331Z,994.31
2019-02-11T05:51:22.548Z,994.37
2019-02-11T05:52:22.771Z,994.34
2019-02-11T05:53:22.992Z,994.32
2019-02-11T05:54:23.247Z,994.47
2019-02-11T05:55:23.906Z,994.34
2019-02-11T05:56:23.659Z,994.37
2019-02-11T05:57:23.882Z,994.52
2019-02-11T05:58:24.101Z,994.45
2019-02-11T05:59:24.342Z,994.42
2019-02-11T06:00:24.550Z,994.60
2019-02-11T06:01:24.787Z,994.46
2019-02-11T06:02:24.987Z,994.54
2019-02-11T06:03:25.335Z,994.56
2019-02-11T06:04:25.464Z,994.67
2019-02-11T06:05:25.655Z,994.65
2019-02-11T06:06:25.896Z,994.59
2019-02-11T06:07:26.098Z,994.56
2019-02-11T06:08:26.332Z,994.79
2019-02-11T06:09:26.572Z,994.86
2019-02-11T06:10:26.781Z,994.73
2019-02-11T06:11:27.086Z,994.84
2019-02-11T06:12:27.205Z,994.80
2019-02-11T06:13:27.431Z,994.89
2019-02-11T06:14:27.672Z,994.96
2019-02-11T06:15:27.881Z,994.82
2019-02-11T06:16:28.115Z,994.95
2019-02-11T06:17:28.335Z,994.94
2019-02-11T06:18:28.526Z,994.97
2019-02-11T06:19:28.839Z,994.87
2019-02-11T06:20:28.988Z,994.96
2019-02-11T06:21:29.232Z,995.08
2019-02-11T06:22:29.440Z,995.03
2019-02-11T06:23:29.765Z,994.95
2019-02-11T06:24:29.877Z,995.02
2019-02-11T06:25:30.094Z,995.17
2019-02-11T06:26:30.341Z,995.14
2019-02-11T06:27:30.597Z,995.17
2019-02-11T06:28:30.791Z,995.20
2019-02-11T06:29:31.045Z,995.25
2019-02-11T06:30:31.211Z,995.27
2019-02-11T06:31:31.451Z,995.28
2019-02-11T06:32:31.647Z,995.31
2019-02-11T06:33:31.877Z,995.32
2019-02-11T06:34:33.824Z,995.40
2019-02-11T06:35:32.325Z,995.38
2019-02-11T06:36:32.686Z,995.43
2019-02-11T06:37:32.808Z,995.50
2019-02-11T06:38:32.991Z,995.43
2019-02-11T06:39:33.229Z,995.50
2019-02-11T06:40:33.418Z,995.48
2019-02-11T06:41:33.879Z,995.45
2019-02-11T06:42:33.900Z,995.58
2019-02-11T06:43:34.092Z,995.73
2019-02-11T06:44:34.459Z,995.55
2019-02-11T06:45:34.514Z,995.58
2019-02-11T06:46:34.755Z,995.61
2019-02-11T06:47:35.245Z,995.66
2019-02-11T06:48:35.216Z,995.72
2019-02-11T06:49:42.035Z,995.74
2019-02-11T06:50:35.662Z,995.70
2019-02-11T06:51:35.890Z,995.80
2019-02-11T06:52:40.689Z,995.90
2019-02-11T06:53:36.323Z,995.84
2019-02-11T06:54:40.600Z,995.86
2019-02-11T06:55:36.760Z,995.85
2019-02-11T06:56:41.630Z,995.86
2019-02-11T06:57:37.203Z,995.88
2019-02-11T06:58:37.430Z,995.98
2019-02-11T06:59:37.717Z,996.01
2019-02-11T07:00:37.906Z,995.92
2019-02-11T07:01:38.095Z,995.99
2019-02-11T07:02:38.301Z,996.14
2019-02-11T07:03:38.526Z,996.18
2019-02-11T07:04:38.797Z,996.12
2019-02-11T07:05:38.952Z,995.91
2019-02-11T07:06:39.211Z,996.07
2019-02-11T07:07:39.406Z,996.12
2019-02-11T07:08:39.670Z,996.19
2019-02-11T07:09:39.885Z,996.18
2019-02-11T07:10:40.063Z,996.28
2019-02-11T07:11:40.314Z,996.27
2019-02-11T07:12:40.533Z,996.22
2019-02-11T07:13:40.754Z,996.35
2019-02-11T07:14:41.040Z,996.27
2019-02-11T07:15:41.198Z,996.21
2019-02-11T07:16:41.438Z,996.31
2019-02-11T07:17:41.769Z,996.25
2019-02-11T07:18:41.874Z,996.33
2019-02-11T07:19:42.145Z,996.32
2019-02-11T07:20:42.314Z,996.40
2019-02-11T07:21:42.540Z,996.45
2019-02-11T07:22:42.746Z,996.49
2019-02-11T07:23:42.982Z,996.55
2019-02-11T07:24:43.240Z,996.51
2019-02-11T07:25:43.657Z,996.53
2019-02-11T07:26:43.631Z,996.55
2019-02-11T07:27:43.907Z,996.52
2019-02-11T07:28:44.133Z,996.56
2019-02-11T07:29:44.343Z,996.59
2019-02-11T07:30:44.559Z,996.57
2019-02-11T07:31:44.781Z,996.62
2019-02-11T07:32:45.003Z,996.60
2019-02-11T07:33:45.308Z,996.68
2019-02-11T07:34:45.493Z,996.49
2019-02-11T07:35:45.675Z,996.70
2019-02-11T07:36:45.906Z,996.76
2019-02-11T07:37:46.141Z,996.72
2019-02-11T07:38:46.342Z,996.70
2019-02-11T07:39:46.612Z,996.77
2019-02-11T07:40:46.830Z,997.08
2019-02-11T07:41:47.066Z,996.79
2019-02-11T07:42:47.248Z,996.85
2019-02-11T07:43:47.450Z,996.94
2019-02-11T07:44:47.682Z,996.96
2019-02-11T07:45:47.902Z,996.96
2019-02-11T07:46:48.126Z,997.12
2019-02-11T07:47:48.370Z,997.01
2019-02-11T07:48:48.602Z,997.00
2019-02-11T07:49:48.834Z,996.96
2019-02-11T07:50:49.066Z,996.95
2019-02-11T07:51:49.241Z,997.10
2019-02-11T07:52:49.480Z,997.17
2019-02-11T07:53:49.690Z,997.16
2019-02-11T07:54:49.916Z,997.10
2019-02-11T07:55:50.128Z,997.21
2019-02-11T07:56:50.351Z,997.28
2019-02-11T07:57:50.618Z,997.18
2019-02-11T07:58:50.936Z,997.22
2019-02-11T07:59:51.054Z,997.37
2019-02-11T08:00:51.248Z,997.36
2019-02-11T08:01:51.483Z,997.40
2019-02-11T08:02:51.718Z,997.30
2019-02-11T08:03:51.953Z,997.38
2019-02-11T08:04:52.167Z,997.49
2019-02-11T08:05:52.389Z,997.52
2019-02-11T08:06:52.694Z,997.57
2019-02-11T08:07:52.843Z,997.62
2019-02-11T08:08:53.045Z,997.48
2019-02-11T08:09:53.272Z,997.41
2019-02-11T08:10:53.477Z,997.50
2019-02-11T08:11:53.676Z,997.54
2019-02-11T08:12:53.943Z,997.41
2019-02-11T08:13:54.158Z,997.46
2019-02-11T08:14:54.420Z,997.40
2019-02-11T08:15:54.576Z,997.54
2019-02-11T08:16:54.800Z,997.54
2019-02-11T08:17:55.024Z,997.53
2019-02-11T08:18:55.275Z,997.59
2019-02-11T08:19:55.804Z,997.64
2019-02-11T08:20:55.766Z,997.65
2019-02-11T08:21:55.906Z,997.64
2019-02-11T08:22:56.175Z,997.63
2019-02-11T08:23:56.378Z,997.62
2019-02-11T08:24:56.618Z,997.81
2019-02-11T08:25:56.857Z,997.67
2019-02-11T08:26:57.056Z,997.66
2019-02-11T08:27:57.291Z,997.69
2019-02-11T08:28:57.507Z,997.75
2019-02-11T08:29:57.688Z,997.89
2019-02-11T08:30:57.970Z,997.80
2019-02-11T08:31:58.264Z,997.81
2019-02-11T08:32:58.407Z,997.81
2019-02-11T08:33:58.599Z,997.92
2019-02-11T08:34:58.821Z,997.82
2019-02-11T08:35:59.084Z,997.89
2019-02-11T08:36:59.307Z,997.91
2019-02-11T08:37:59.547Z,997.99
2019-02-11T08:38:59.763Z,998.09
2019-02-11T08:40:00.071Z,997.94
2019-02-11T08:41:00.204Z,998.00
2019-02-11T08:42:00.423Z,997.98
2019-02-11T08:43:01.341Z,998.00
2019-02-11T08:44:00.890Z,998.00
2019-02-11T08:45:01.087Z,998.12
2019-02-11T08:46:01.340Z,998.07
2019-02-11T08:47:01.539Z,998.10
2019-02-11T08:48:01.840Z,998.24
2019-02-11T08:49:01.993Z,998.20
2019-02-11T08:50:02.185Z,998.27
2019-02-11T08:51:02.421Z,998.26
2019-02-11T08:52:02.642Z,998.38
2019-02-11T08:53:02.876Z,998.29
2019-02-11T08:54:03.092Z,998.39
2019-02-11T08:55:03.313Z,998.46
2019-02-11T08:56:03.640Z,998.41
2019-02-11T08:57:03.717Z,998.53
2019-02-11T08:58:03.972Z,998.48
2019-02-11T08:59:04.196Z,998.53
2019-02-11T09:00:04.408Z,998.62
2019-02-11T09:01:04.651Z,998.52
2019-02-11T09:02:04.856Z,998.63
2019-02-11T09:03:05.086Z,998.62
2019-02-11T09:04:05.370Z,998.66
2019-02-11T09:05:05.597Z,998.70
2019-02-11T09:06:05.786Z,998.67
2019-02-11T09:07:05.980Z,998.77
2019-02-11T09:08:06.210Z,998.75
2019-02-11T09:09:06.452Z,998.81
2019-02-11T09:10:06.655Z,998.77
2019-02-11T09:11:06.891Z,998.85
2019-02-11T09:12:07.098Z,998.92
2019-02-11T09:13:07.408Z,998.79
2019-02-11T09:14:07.568Z,998.87
2019-02-11T09:15:07.767Z,998.88
2019-02-11T09:16:07.996Z,998.91
2019-02-11T09:17:10.350Z,998.97
2019-02-11T09:18:08.446Z,998.99
2019-02-11T09:19:08.649Z,999.03
2019-02-11T09:20:08.878Z,999.08
2019-02-11T09:21:09.206Z,999.21
2019-02-11T09:22:09.309Z,999.00
2019-02-11T09:23:09.551Z,999.01
2019-02-11T09:24:09.738Z,999.21
2019-02-11T09:25:09.972Z,999.01
2019-02-11T09:26:10.219Z,999.23
2019-02-11T09:27:10.419Z,999.47
2019-02-11T09:28:10.659Z,999.32
2019-02-11T09:29:10.943Z,999.37
2019-02-11T09:30:11.054Z,999.31
2019-02-11T09:31:11.311Z,999.27
2019-02-11T09:32:11.524Z,999.34
2019-02-11T09:33:11.758Z,999.44
2019-02-11T09:34:11.969Z,999.53
2019-02-11T09:35:12.212Z,999.38
2019-02-11T09:36:12.406Z,999.54
2019-02-11T09:37:12.678Z,999.61
2019-02-11T09:38:12.883Z,999.51
2019-02-11T09:39:13.076Z,999.69
2019-02-11T09:40:13.310Z,999.50
2019-02-11T09:41:13.541Z,999.52
2019-02-11T09:42:13.737Z,999.53
2019-02-11T09:43:13.989Z,999.63
2019-02-11T09:44:14.222Z,999.55
2019-02-11T09:45:14.484Z,999.59
2019-02-11T09:46:14.740Z,999.64
2019-02-11T09:47:14.886Z,999.84
2019-02-11T09:48:15.117Z,999.69
2019-02-11T09:49:15.351Z,999.71
2019-02-11T09:50:15.580Z,999.60
2019-02-11T09:51:15.809Z,999.61
2019-02-11T09:52:15.984Z,999.68
2019-02-11T09:53:16.212Z,999.83
2019-02-11T09:54:16.597Z,999.67
2019-02-11T09:55:16.715Z,999.71
2019-02-11T09:56:16.952Z,999.99
2019-02-11T09:57:17.143Z,999.75
2019-02-11T09:58:17.600Z,999.77
2019-02-11T09:59:17.622Z,999.88
2019-02-11T10:00:18.035Z,999.78
2019-02-11T10:01:18.063Z,999.74
2019-02-11T10:02:18.353Z,1000.07
2019-02-11T10:03:18.455Z,1000.17
2019-02-11T10:04:18.722Z,999.88
2019-02-11T10:05:18.951Z,1000.06
2019-02-11T10:06:19.174Z,999.90
2019-02-11T10:07:19.370Z,999.93
2019-02-11T10:08:19.595Z,999.99
2019-02-11T10:09:19.817Z,1000.14
2019-02-11T10:10:20.107Z,999.97
2019-02-11T10:11:20.253Z,1000.04
2019-02-11T10:12:21.378Z,1000.07
2019-02-11T10:13:20.689Z,1000.07
2019-02-11T10:14:20.921Z,1000.13
2019-02-11T10:15:21.152Z,1000.08
2019-02-11T10:16:22.251Z,1000.07
2019-02-11T10:17:29.435Z,1000.19
2019-02-11T10:18:22.845Z,1000.07
2019-02-11T10:19:22.132Z,1000.26
2019-02-11T10:20:22.293Z,1000.30
2019-02-11T10:21:22.507Z,1000.33
2019-02-11T10:22:22.728Z,1000.28
2019-02-11T10:23:22.950Z,1000.27
2019-02-11T10:24:23.183Z,1000.32
2019-02-11T10:25:24.159Z,1000.39
2019-02-11T10:26:23.630Z,1000.27
2019-02-11T10:27:23.966Z,1000.20
2019-02-11T10:28:24.062Z,1000.39
2019-02-11T10:29:24.301Z,1000.30
2019-02-11T10:30:24.509Z,1000.30
2019-02-11T10:31:24.740Z,1000.51
2019-02-11T10:32:24.945Z,1000.44
2019-02-11T10:33:25.174Z,1000.39
2019-02-11T10:34:25.420Z,1000.44
2019-02-11T10:35:25.713Z,1000.45
2019-02-11T10:36:25.936Z,1000.56
2019-02-11T10:37:26.073Z,1000.55
2019-02-11T10:38:27.604Z,1000.56
2019-02-11T10:39:26.536Z,1000.50
2019-02-11T10:40:26.748Z,1000.39
2019-02-11T10:41:26.985Z,1000.42
2019-02-11T10:42:27.168Z,1000.38
2019-02-11T10:43:27.488Z,1000.36
2019-02-11T10:44:27.629Z,1000.43
2019-02-11T10:45:36.245Z,1000.47
2019-02-11T10:46:29.062Z,1000.46
2019-02-11T10:47:28.310Z,1000.62
2019-02-11T10:48:28.508Z,1000.70
2019-02-11T10:49:28.760Z,1000.62
2019-02-11T10:50:29.024Z,1000.64
2019-02-11T10:51:29.219Z,1000.58
2019-02-11T10:52:29.443Z,1000.64
2019-02-11T10:53:29.642Z,1000.61
2019-02-11T10:54:29.896Z,1000.76
2019-02-11T10:55:30.110Z,1000.71
2019-02-11T10:56:30.315Z,1000.66
2019-02-11T10:57:30.570Z,1000.78
2019-02-11T10:58:30.769Z,1000.84
2019-02-11T10:59:31.013Z,1000.63
2019-02-11T11:00:31.343Z,1000.84
2019-02-11T11:01:31.435Z,1000.70
2019-02-11T11:02:31.675Z,1000.78
2019-02-11T11:03:31.880Z,1000.86
2019-02-11T11:04:32.103Z,1000.82
2019-02-11T11:05:32.348Z,1000.66
2019-02-11T11:06:32.565Z,1001.03
2019-02-11T11:07:32.798Z,1000.97
2019-02-11T11:08:33.148Z,1000.93
2019-02-11T11:09:33.228Z,1000.87
2019-02-11T11:10:33.466Z,1000.92
2019-02-11T11:11:33.674Z,1000.91
2019-02-11T11:12:33.915Z,1000.97
2019-02-11T11:13:34.119Z,1000.99
2019-02-11T11:14:34.362Z,1001.05
2019-02-11T11:15:34.562Z,1001.13
2019-02-11T11:16:34.830Z,1001.08
2019-02-11T11:17:35.031Z,1001.07
2019-02-11T11:18:35.238Z,1001.08
2019-02-11T11:19:35.481Z,1001.28
2019-02-11T11:20:35.695Z,1001.25
2019-02-11T11:21:35.892Z,1001.24
2019-02-11T11:22:36.148Z,1001.31
2019-02-11T11:23:36.357Z,1001.19
2019-02-11T11:24:36.671Z,1001.24
2019-02-11T11:25:36.781Z,1001.28
2019-02-11T11:26:36.990Z,1001.17
2019-02-11T11:27:37.247Z,1001.17
2019-02-11T11:28:37.475Z,1001.21
2019-02-11T11:29:37.720Z,1001.25
2019-02-11T11:30:37.927Z,1001.24
2019-02-11T11:31:38.147Z,1001.19
2019-02-11T11:32:38.397Z,1001.26
2019-02-11T11:33:38.676Z,1001.20
2019-02-11T11:34:39.064Z,1001.26
2019-02-11T11:35:39.061Z,1001.32
2019-02-11T11:36:39.260Z,1001.40
2019-02-11T11:37:39.500Z,1001.35
2019-02-11T11:38:39.688Z,1001.40
2019-02-11T11:39:39.947Z,1001.30
2019-02-11T11:40:40.171Z,1001.38
2019-02-11T11:41:40.508Z,1001.43
2019-02-11T11:42:40.611Z,1001.36
2019-02-11T11:43:40.806Z,1001.40
2019-02-11T11:44:41.030Z,1001.35
2019-02-11T11:45:41.273Z,1001.47
2019-02-11T11:46:46.900Z,1001.44
2019-02-11T11:47:42.733Z,1001.53
2019-02-11T11:48:41.937Z,1001.43
2019-02-11T11:49:42.195Z,1001.50
2019-02-11T11:50:42.415Z,1001.39
2019-02-11T11:51:42.613Z,1001.51
2019-02-11T11:52:42.853Z,1001.52
2019-02-11T11:53:43.057Z,1001.46
2019-02-11T11:54:43.259Z,1001.61
2019-02-11T11:55:43.536Z,1001.64
2019-02-11T11:56:43.766Z,1001.53
2019-02-11T11:57:44.070Z,1001.52
2019-02-11T11:58:44.193Z,1001.58
2019-02-11T11:59:44.418Z,1001.67
2019-02-11T12:00:44.669Z,1001.63
2019-02-11T12:01:44.865Z,1001.70
2019-02-11T12:03:00.343Z,1001.69
2019-02-11T12:03:46.300Z,1001.73
2019-02-11T12:04:45.523Z,1001.73
2019-02-11T12:05:45.804Z,1001.74
2019-02-11T12:06:45.969Z,1001.87
2019-02-11T12:07:46.234Z,1001.74
2019-02-11T12:08:46.435Z,1001.74
2019-02-11T12:09:46.658Z,1001.74
2019-02-11T12:10:46.933Z,1001.95
2019-02-11T12:11:47.089Z,1001.87
2019-02-11T12:12:47.370Z,1001.96
2019-02-11T12:13:47.578Z,1001.92
2019-02-11T12:14:47.975Z,1002.14
2019-02-11T12:15:48.054Z,1002.12
2019-02-11T12:16:57.014Z,1002.19
2019-02-11T12:17:49.470Z,1001.91
2019-02-11T12:18:48.675Z,1002.15
2019-02-11T12:19:48.900Z,1002.10
2019-02-11T12:20:49.157Z,1002.12
2019-02-11T12:21:49.338Z,1002.21
2019-02-11T12:22:49.711Z,1002.27
2019-02-11T12:23:49.796Z,1002.14
2019-02-11T12:24:50.017Z,1002.13
2019-02-11T12:25:50.265Z,1002.04
2019-02-11T12:26:50.460Z,1002.12